プライア の空港の天気 - METARとTAF

プライア国際空港 ( GVNP / RAI ) - カーボベルデ サンティアゴ島, プライア
飛行場実況気象(Metar)
観測時間08/04 19:00 CVT (08/04 20:00 UTC)
風向・風速東北東 5m/s
視程10km以上
天気現象
全天の8割程度の雲 雲底高度 490m
気温28℃
湿度62%
気圧1013hPa
METARGVNP 042000Z 06009KT 9999 BKN016 28/20 Q1013 NOSIG
過去の天気等 Google飛行場航空写真 Wunderground天気予報

過去48時間のMETAR

飛行場予報(TAF)
発表時間: 8/04 16:00 CVT (8/04 17:00 UTC)
予報対象時間: 4日17時 CVT ~ 5日23時 CVT
風向・風速北 5m/s
視程10km以上
全天の8割程度の雲 雲底高度 460m
5日1時 CVT ~ 5日6時 CVT に一時的に
天気現象弱い雨霧雨
全天の8割程度の雲 雲底高度 430m
全天の8割程度の雲 雲底高度 520m
5日13時 CVT ~ 5日21時 CVT に一時的に
全天の4割程度の雲 雲底高度 430m
TAF GVNP 041700Z 0418/0524 36010KT 9999 BKN015
TEMPO 0502/0507 -RADZ BKN014 BKN017
TEMPO 0514/0522 SCT014